sensor_id;sensor_type;location;lat;lon;timestamp;P1;durP1;ratioP1;P2;durP2;ratioP2
12814;SDS011;6472;52.328;13.070;2023-08-01T00:00:13;5.38;;;2.90;;
12814;SDS011;6472;52.328;13.070;2023-08-01T00:02:42;3.50;;;2.65;;
12814;SDS011;6472;52.328;13.070;2023-08-01T00:05:11;3.83;;;2.80;;
12814;SDS011;6472;52.328;13.070;2023-08-01T00:07:39;3.72;;;2.42;;
12814;SDS011;6472;52.328;13.070;2023-08-01T00:10:07;5.43;;;2.50;;
12814;SDS011;6472;52.328;13.070;2023-08-01T00:12:36;2.78;;;2.13;;
12814;SDS011;6472;52.328;13.070;2023-08-01T00:15:04;2.75;;;2.05;;
12814;SDS011;6472;52.328;13.070;2023-08-01T00:17:33;2.80;;;2.10;;
12814;SDS011;6472;52.328;13.070;2023-08-01T00:20:03;2.47;;;2.20;;
12814;SDS011;6472;52.328;13.070;2023-08-01T00:22:32;6.75;;;2.65;;
12814;SDS011;6472;52.328;13.070;2023-08-01T00:25:00;4.47;;;2.28;;
12814;SDS011;6472;52.328;13.070;2023-08-01T00:27:28;4.13;;;2.63;;
12814;SDS011;6472;52.328;13.070;2023-08-01T00:30:06;5.00;;;2.63;;
12814;SDS011;6472;52.328;13.070;2023-08-01T00:32:34;3.95;;;2.22;;
12814;SDS011;6472;52.328;13.070;2023-08-01T00:35:04;2.90;;;2.50;;
12814;SDS011;6472;52.328;13.070;2023-08-01T00:37:33;4.18;;;2.25;;
12814;SDS011;6472;52.328;13.070;2023-08-01T00:40:01;3.38;;;2.60;;
12814;SDS011;6472;52.328;13.070;2023-08-01T00:42:29;2.55;;;2.30;;
12814;SDS011;6472;52.328;13.070;2023-08-01T00:44:57;2.80;;;2.40;;
12814;SDS011;6472;52.328;13.070;2023-08-01T00:47:27;4.10;;;2.70;;
12814;SDS011;6472;52.328;13.070;2023-08-01T00:49:55;2.92;;;2.63;;
12814;SDS011;6472;52.328;13.070;2023-08-01T00:52:24;2.83;;;2.45;;
12814;SDS011;6472;52.328;13.070;2023-08-01T00:54:52;5.15;;;2.28;;
12814;SDS011;6472;52.328;13.070;2023-08-01T00:57:20;5.70;;;2.85;;
12814;SDS011;6472;52.328;13.070;2023-08-01T00:59:48;3.38;;;2.58;;
12814;SDS011;6472;52.328;13.070;2023-08-01T01:02:17;3.55;;;2.42;;
12814;SDS011;6472;52.328;13.070;2023-08-01T01:04:45;6.47;;;2.72;;
12814;SDS011;6472;52.328;13.070;2023-08-01T01:07:14;5.05;;;3.58;;
12814;SDS011;6472;52.328;13.070;2023-08-01T01:09:46;4.95;;;3.38;;
12814;SDS011;6472;52.328;13.070;2023-08-01T01:12:14;4.70;;;3.03;;
12814;SDS011;6472;52.328;13.070;2023-08-01T01:14:42;6.18;;;3.42;;
12814;SDS011;6472;52.328;13.070;2023-08-01T01:17:10;4.68;;;3.28;;
12814;SDS011;6472;52.328;13.070;2023-08-01T01:19:38;6.45;;;3.25;;
12814;SDS011;6472;52.328;13.070;2023-08-01T01:22:08;3.90;;;3.00;;
12814;SDS011;6472;52.328;13.070;2023-08-01T01:24:37;5.15;;;3.13;;
12814;SDS011;6472;52.328;13.070;2023-08-01T01:27:07;4.70;;;3.30;;
12814;SDS011;6472;52.328;13.070;2023-08-01T01:29:37;5.00;;;3.38;;
12814;SDS011;6472;52.328;13.070;2023-08-01T01:32:06;6.05;;;3.20;;
12814;SDS011;6472;52.328;13.070;2023-08-01T01:34:34;4.75;;;3.35;;
12814;SDS011;6472;52.328;13.070;2023-08-01T01:37:03;4.57;;;3.65;;
12814;SDS011;6472;52.328;13.070;2023-08-01T01:39:32;4.63;;;3.35;;
12814;SDS011;6472;52.328;13.070;2023-08-01T01:42:01;5.97;;;3.70;;
12814;SDS011;6472;52.328;13.070;2023-08-01T01:44:28;4.63;;;3.45;;
12814;SDS011;6472;52.328;13.070;2023-08-01T01:46:56;4.82;;;3.25;;
12814;SDS011;6472;52.328;13.070;2023-08-01T01:49:24;3.88;;;3.47;;
12814;SDS011;6472;52.328;13.070;2023-08-01T01:51:52;4.47;;;3.45;;
12814;SDS011;6472;52.328;13.070;2023-08-01T01:54:23;3.92;;;3.40;;
12814;SDS011;6472;52.328;13.070;2023-08-01T01:56:53;3.90;;;3.50;;
12814;SDS011;6472;52.328;13.070;2023-08-01T01:59:20;4.47;;;3.58;;
12814;SDS011;6472;52.328;13.070;2023-08-01T02:01:48;3.33;;;3.03;;
12814;SDS011;6472;52.328;13.070;2023-08-01T02:04:16;5.20;;;3.60;;
12814;SDS011;6472;52.328;13.070;2023-08-01T02:06:45;6.50;;;3.85;;
12814;SDS011;6472;52.328;13.070;2023-08-01T02:09:14;3.63;;;3.25;;
12814;SDS011;6472;52.328;13.070;2023-08-01T02:11:42;4.57;;;3.20;;
12814;SDS011;6472;52.328;13.070;2023-08-01T02:14:11;5.40;;;3.80;;
12814;SDS011;6472;52.328;13.070;2023-08-01T02:16:40;6.40;;;3.80;;
12814;SDS011;6472;52.328;13.070;2023-08-01T02:19:08;7.88;;;3.80;;
12814;SDS011;6472;52.328;13.070;2023-08-01T02:21:36;5.97;;;4.15;;
12814;SDS011;6472;52.328;13.070;2023-08-01T02:24:04;7.95;;;3.75;;
12814;SDS011;6472;52.328;13.070;2023-08-01T02:26:32;4.95;;;3.25;;
12814;SDS011;6472;52.328;13.070;2023-08-01T02:29:00;5.15;;;3.38;;
12814;SDS011;6472;52.328;13.070;2023-08-01T02:31:29;6.10;;;3.55;;
12814;SDS011;6472;52.328;13.070;2023-08-01T02:33:57;7.78;;;3.42;;
12814;SDS011;6472;52.328;13.070;2023-08-01T02:36:25;3.90;;;3.50;;
12814;SDS011;6472;52.328;13.070;2023-08-01T02:38:53;5.07;;;4.00;;
12814;SDS011;6472;52.328;13.070;2023-08-01T02:41:21;4.67;;;3.73;;
12814;SDS011;6472;52.328;13.070;2023-08-01T02:43:49;5.05;;;3.60;;
12814;SDS011;6472;52.328;13.070;2023-08-01T02:46:17;5.15;;;3.90;;
12814;SDS011;6472;52.328;13.070;2023-08-01T02:48:46;5.28;;;3.42;;
12814;SDS011;6472;52.328;13.070;2023-08-01T02:51:15;3.63;;;3.28;;
12814;SDS011;6472;52.328;13.070;2023-08-01T02:53:43;3.40;;;3.10;;
12814;SDS011;6472;52.328;13.070;2023-08-01T02:56:11;4.90;;;3.63;;
12814;SDS011;6472;52.328;13.070;2023-08-01T02:58:39;6.47;;;3.93;;
12814;SDS011;6472;52.328;13.070;2023-08-01T03:01:08;6.23;;;4.07;;
12814;SDS011;6472;52.328;13.070;2023-08-01T03:03:37;6.03;;;3.47;;
12814;SDS011;6472;52.328;13.070;2023-08-01T03:06:06;5.10;;;3.73;;
12814;SDS011;6472;52.328;13.070;2023-08-01T03:08:34;5.43;;;3.83;;
12814;SDS011;6472;52.328;13.070;2023-08-01T03:11:02;4.05;;;3.50;;
12814;SDS011;6472;52.328;13.070;2023-08-01T03:13:30;4.25;;;3.30;;
12814;SDS011;6472;52.328;13.070;2023-08-01T03:15:58;5.50;;;3.13;;
12814;SDS011;6472;52.328;13.070;2023-08-01T03:18:26;4.05;;;3.10;;
12814;SDS011;6472;52.328;13.070;2023-08-01T03:20:54;4.88;;;3.60;;
12814;SDS011;6472;52.328;13.070;2023-08-01T03:23:24;5.15;;;3.50;;
12814;SDS011;6472;52.328;13.070;2023-08-01T03:25:52;8.48;;;3.92;;
12814;SDS011;6472;52.328;13.070;2023-08-01T03:28:20;6.43;;;3.90;;
12814;SDS011;6472;52.328;13.070;2023-08-01T03:30:48;3.92;;;3.42;;
12814;SDS011;6472;52.328;13.070;2023-08-01T03:33:16;4.60;;;3.03;;
12814;SDS011;6472;52.328;13.070;2023-08-01T03:35:44;3.20;;;2.90;;
12814;SDS011;6472;52.328;13.070;2023-08-01T03:38:12;3.47;;;3.15;;
12814;SDS011;6472;52.328;13.070;2023-08-01T03:40:42;5.78;;;3.35;;
12814;SDS011;6472;52.328;13.070;2023-08-01T03:43:10;6.75;;;3.03;;
12814;SDS011;6472;52.328;13.070;2023-08-01T03:45:38;4.00;;;2.97;;
12814;SDS011;6472;52.328;13.070;2023-08-01T03:48:06;3.28;;;2.97;;
12814;SDS011;6472;52.328;13.070;2023-08-01T03:50:34;5.57;;;2.80;;
12814;SDS011;6472;52.328;13.070;2023-08-01T03:53:02;4.78;;;3.08;;
12814;SDS011;6472;52.328;13.070;2023-08-01T03:55:30;3.75;;;2.67;;
12814;SDS011;6472;52.328;13.070;2023-08-01T03:58:00;3.20;;;2.90;;
12814;SDS011;6472;52.328;13.070;2023-08-01T04:00:28;3.63;;;2.95;;
12814;SDS011;6472;52.328;13.070;2023-08-01T04:02:58;4.25;;;3.00;;
12814;SDS011;6472;52.328;13.070;2023-08-01T04:05:28;3.70;;;2.70;;
12814;SDS011;6472;52.328;13.070;2023-08-01T04:07:56;4.50;;;3.00;;
12814;SDS011;6472;52.328;13.070;2023-08-01T04:10:24;5.63;;;2.92;;
12814;SDS011;6472;52.328;13.070;2023-08-01T04:12:52;2.40;;;2.20;;
12814;SDS011;6472;52.328;13.070;2023-08-01T04:15:21;3.33;;;2.35;;
12814;SDS011;6472;52.328;13.070;2023-08-01T04:17:49;4.32;;;2.47;;
12814;SDS011;6472;52.328;13.070;2023-08-01T04:20:17;3.10;;;2.78;;
12814;SDS011;6472;52.328;13.070;2023-08-01T04:22:45;3.22;;;2.50;;
12814;SDS011;6472;52.328;13.070;2023-08-01T04:25:13;5.15;;;2.92;;
12814;SDS011;6472;52.328;13.070;2023-08-01T04:27:41;5.22;;;2.88;;
12814;SDS011;6472;52.328;13.070;2023-08-01T04:30:10;2.67;;;2.20;;
12814;SDS011;6472;52.328;13.070;2023-08-01T04:32:40;3.72;;;2.40;;
12814;SDS011;6472;52.328;13.070;2023-08-01T04:35:08;4.75;;;2.38;;
12814;SDS011;6472;52.328;13.070;2023-08-01T04:37:36;6.43;;;2.28;;
12814;SDS011;6472;52.328;13.070;2023-08-01T04:40:04;3.47;;;2.67;;
12814;SDS011;6472;52.328;13.070;2023-08-01T04:42:33;3.78;;;2.70;;
12814;SDS011;6472;52.328;13.070;2023-08-01T04:45:01;2.97;;;2.55;;
12814;SDS011;6472;52.328;13.070;2023-08-01T04:47:29;3.58;;;2.70;;
12814;SDS011;6472;52.328;13.070;2023-08-01T04:49:59;4.75;;;2.72;;
12814;SDS011;6472;52.328;13.070;2023-08-01T04:52:27;3.55;;;2.90;;
12814;SDS011;6472;52.328;13.070;2023-08-01T04:54:55;3.13;;;2.80;;
12814;SDS011;6472;52.328;13.070;2023-08-01T04:57:23;2.83;;;2.40;;
12814;SDS011;6472;52.328;13.070;2023-08-01T04:59:51;3.05;;;2.50;;
12814;SDS011;6472;52.328;13.070;2023-08-01T05:02:18;2.92;;;2.70;;
12814;SDS011;6472;52.328;13.070;2023-08-01T05:04:46;2.55;;;2.13;;
12814;SDS011;6472;52.328;13.070;2023-08-01T05:07:16;4.57;;;2.95;;
12814;SDS011;6472;52.328;13.070;2023-08-01T05:09:44;3.40;;;2.17;;
12814;SDS011;6472;52.328;13.070;2023-08-01T05:12:12;2.90;;;2.67;;
12814;SDS011;6472;52.328;13.070;2023-08-01T05:14:40;3.92;;;2.70;;
12814;SDS011;6472;52.328;13.070;2023-08-01T05:17:08;2.08;;;1.90;;
12814;SDS011;6472;52.328;13.070;2023-08-01T05:19:36;3.38;;;3.00;;
12814;SDS011;6472;52.328;13.070;2023-08-01T05:22:04;3.30;;;2.78;;
12814;SDS011;6472;52.328;13.070;2023-08-01T05:24:34;5.40;;;2.80;;
12814;SDS011;6472;52.328;13.070;2023-08-01T05:27:02;3.20;;;2.50;;
12814;SDS011;6472;52.328;13.070;2023-08-01T05:29:30;3.55;;;3.10;;
12814;SDS011;6472;52.328;13.070;2023-08-01T05:31:59;2.58;;;2.38;;
12814;SDS011;6472;52.328;13.070;2023-08-01T05:34:27;3.40;;;2.95;;
12814;SDS011;6472;52.328;13.070;2023-08-01T05:36:55;3.33;;;2.70;;
12814;SDS011;6472;52.328;13.070;2023-08-01T05:39:22;3.03;;;2.72;;
12814;SDS011;6472;52.328;13.070;2023-08-01T05:41:52;3.47;;;3.17;;
12814;SDS011;6472;52.328;13.070;2023-08-01T05:44:20;5.45;;;2.85;;
12814;SDS011;6472;52.328;13.070;2023-08-01T05:46:48;2.67;;;2.40;;
12814;SDS011;6472;52.328;13.070;2023-08-01T05:49:16;5.03;;;2.83;;
12814;SDS011;6472;52.328;13.070;2023-08-01T05:51:44;4.10;;;2.88;;
12814;SDS011;6472;52.328;13.070;2023-08-01T05:54:12;3.13;;;2.05;;
12814;SDS011;6472;52.328;13.070;2023-08-01T05:56:40;3.50;;;2.72;;
12814;SDS011;6472;52.328;13.070;2023-08-01T05:59:09;3.03;;;2.72;;
12814;SDS011;6472;52.328;13.070;2023-08-01T06:01:37;3.75;;;3.33;;
12814;SDS011;6472;52.328;13.070;2023-08-01T06:04:06;4.00;;;2.45;;
12814;SDS011;6472;52.328;13.070;2023-08-01T06:06:34;2.38;;;2.15;;
12814;SDS011;6472;52.328;13.070;2023-08-01T06:09:02;2.50;;;2.30;;
12814;SDS011;6472;52.328;13.070;2023-08-01T06:11:30;4.38;;;2.88;;
12814;SDS011;6472;52.328;13.070;2023-08-01T06:13:59;2.70;;;2.30;;
12814;SDS011;6472;52.328;13.070;2023-08-01T06:16:29;2.80;;;2.53;;
12814;SDS011;6472;52.328;13.070;2023-08-01T06:18:57;2.97;;;2.63;;
12814;SDS011;6472;52.328;13.070;2023-08-01T06:21:25;2.47;;;2.15;;
12814;SDS011;6472;52.328;13.070;2023-08-01T06:23:53;3.30;;;2.50;;
12814;SDS011;6472;52.328;13.070;2023-08-01T06:26:21;4.93;;;2.47;;
12814;SDS011;6472;52.328;13.070;2023-08-01T06:28:49;3.28;;;2.40;;
12814;SDS011;6472;52.328;13.070;2023-08-01T06:31:19;3.78;;;2.28;;
12814;SDS011;6472;52.328;13.070;2023-08-01T06:33:48;2.42;;;2.22;;
12814;SDS011;6472;52.328;13.070;2023-08-01T06:36:16;2.95;;;2.38;;
12814;SDS011;6472;52.328;13.070;2023-08-01T06:38:44;4.80;;;2.42;;
12814;SDS011;6472;52.328;13.070;2023-08-01T06:41:13;2.80;;;2.30;;
12814;SDS011;6472;52.328;13.070;2023-08-01T06:43:41;3.70;;;2.65;;
12814;SDS011;6472;52.328;13.070;2023-08-01T06:46:09;3.78;;;2.42;;
12814;SDS011;6472;52.328;13.070;2023-08-01T06:48:37;2.92;;;2.63;;
12814;SDS011;6472;52.328;13.070;2023-08-01T06:51:07;2.30;;;2.08;;
12814;SDS011;6472;52.328;13.070;2023-08-01T06:53:35;4.40;;;2.53;;
12814;SDS011;6472;52.328;13.070;2023-08-01T06:56:03;2.42;;;2.22;;
12814;SDS011;6472;52.328;13.070;2023-08-01T06:58:31;4.25;;;2.80;;
12814;SDS011;6472;52.328;13.070;2023-08-01T07:00:59;3.75;;;2.60;;
12814;SDS011;6472;52.328;13.070;2023-08-01T07:03:27;3.80;;;2.35;;
12814;SDS011;6472;52.328;13.070;2023-08-01T07:05:55;3.97;;;2.15;;
12814;SDS011;6472;52.328;13.070;2023-08-01T07:08:25;4.20;;;2.38;;
12814;SDS011;6472;52.328;13.070;2023-08-01T07:10:53;2.58;;;2.13;;
12814;SDS011;6472;52.328;13.070;2023-08-01T07:13:21;2.58;;;2.20;;
12814;SDS011;6472;52.328;13.070;2023-08-01T07:15:51;2.30;;;1.70;;
12814;SDS011;6472;52.328;13.070;2023-08-01T07:18:19;2.70;;;2.28;;
12814;SDS011;6472;52.328;13.070;2023-08-01T07:20:47;3.17;;;2.08;;
12814;SDS011;6472;52.328;13.070;2023-08-01T07:23:15;2.10;;;1.80;;
12814;SDS011;6472;52.328;13.070;2023-08-01T07:25:44;2.45;;;2.08;;
12814;SDS011;6472;52.328;13.070;2023-08-01T07:28:12;2.72;;;2.53;;
12814;SDS011;6472;52.328;13.070;2023-08-01T07:30:40;3.13;;;2.13;;
12814;SDS011;6472;52.328;13.070;2023-08-01T07:33:08;2.03;;;1.80;;
12814;SDS011;6472;52.328;13.070;2023-08-01T07:35:36;5.03;;;1.98;;
12814;SDS011;6472;52.328;13.070;2023-08-01T07:38:04;1.73;;;1.60;;
12814;SDS011;6472;52.328;13.070;2023-08-01T07:40:35;2.00;;;1.90;;
12814;SDS011;6472;52.328;13.070;2023-08-01T07:43:05;2.72;;;1.38;;
12814;SDS011;6472;52.328;13.070;2023-08-01T07:45:33;3.15;;;2.00;;
12814;SDS011;6472;52.328;13.070;2023-08-01T07:48:01;2.53;;;2.00;;
12814;SDS011;6472;52.328;13.070;2023-08-01T07:50:30;2.55;;;1.70;;
12814;SDS011;6472;52.328;13.070;2023-08-01T07:52:58;2.67;;;1.40;;
12814;SDS011;6472;52.328;13.070;2023-08-01T07:55:26;1.70;;;1.60;;
12814;SDS011;6472;52.328;13.070;2023-08-01T07:57:54;2.78;;;1.95;;
12814;SDS011;6472;52.328;13.070;2023-08-01T08:00:23;1.38;;;1.17;;
12814;SDS011;6472;52.328;13.070;2023-08-01T08:02:53;1.55;;;1.45;;
12814;SDS011;6472;52.328;13.070;2023-08-01T08:05:21;2.70;;;1.40;;
12814;SDS011;6472;52.328;13.070;2023-08-01T08:07:49;1.58;;;1.42;;
12814;SDS011;6472;52.328;13.070;2023-08-01T08:10:18;1.83;;;1.23;;
12814;SDS011;6472;52.328;13.070;2023-08-01T08:12:46;1.30;;;1.20;;
12814;SDS011;6472;52.328;13.070;2023-08-01T08:15:14;2.58;;;1.23;;
12814;SDS011;6472;52.328;13.070;2023-08-01T08:17:43;0.82;;;0.82;;
12814;SDS011;6472;52.328;13.070;2023-08-01T08:20:11;1.10;;;1.00;;
12814;SDS011;6472;52.328;13.070;2023-08-01T08:22:39;1.92;;;1.50;;
12814;SDS011;6472;52.328;13.070;2023-08-01T08:25:07;2.00;;;1.63;;
12814;SDS011;6472;52.328;13.070;2023-08-01T08:27:35;1.30;;;0.82;;
12814;SDS011;6472;52.328;13.070;2023-08-01T08:30:03;1.17;;;1.00;;
12814;SDS011;6472;52.328;13.070;2023-08-01T08:32:33;1.40;;;1.20;;
12814;SDS011;6472;52.328;13.070;2023-08-01T08:35:04;1.13;;;0.93;;
12814;SDS011;6472;52.328;13.070;2023-08-01T08:37:32;1.05;;;1.00;;
12814;SDS011;6472;52.328;13.070;2023-08-01T08:40:00;1.48;;;0.90;;
12814;SDS011;6472;52.328;13.070;2023-08-01T08:42:30;1.15;;;1.08;;
12814;SDS011;6472;52.328;13.070;2023-08-01T08:45:01;0.80;;;0.80;;
12814;SDS011;6472;52.328;13.070;2023-08-01T08:47:34;1.00;;;1.00;;
12814;SDS011;6472;52.328;13.070;2023-08-01T08:50:07;1.00;;;0.90;;
12814;SDS011;6472;52.328;13.070;2023-08-01T08:52:36;1.13;;;0.80;;
12814;SDS011;6472;52.328;13.070;2023-08-01T08:55:05;1.60;;;0.82;;
12814;SDS011;6472;52.328;13.070;2023-08-01T08:57:34;2.42;;;0.90;;
12814;SDS011;6472;52.328;13.070;2023-08-01T09:00:02;0.50;;;0.50;;
12814;SDS011;6472;52.328;13.070;2023-08-01T09:02:32;0.60;;;0.60;;
12814;SDS011;6472;52.328;13.070;2023-08-01T09:05:00;0.85;;;0.68;;
12814;SDS011;6472;52.328;13.070;2023-08-01T09:07:30;0.65;;;0.65;;
12814;SDS011;6472;52.328;13.070;2023-08-01T09:10:02;0.40;;;0.40;;
12814;SDS011;6472;52.328;13.070;2023-08-01T09:12:32;3.38;;;0.73;;
12814;SDS011;6472;52.328;13.070;2023-08-01T09:15:02;0.60;;;0.60;;
12814;SDS011;6472;52.328;13.070;2023-08-01T09:17:31;0.68;;;0.68;;
12814;SDS011;6472;52.328;13.070;2023-08-01T09:20:03;1.20;;;0.82;;
12814;SDS011;6472;52.328;13.070;2023-08-01T09:22:42;0.80;;;0.60;;
12814;SDS011;6472;52.328;13.070;2023-08-01T09:25:10;2.55;;;0.75;;
12814;SDS011;6472;52.328;13.070;2023-08-01T09:27:39;0.85;;;0.60;;
12814;SDS011;6472;52.328;13.070;2023-08-01T09:30:08;0.65;;;0.65;;
12814;SDS011;6472;52.328;13.070;2023-08-01T09:32:37;0.50;;;0.50;;
12814;SDS011;6472;52.328;13.070;2023-08-01T09:35:05;1.10;;;0.70;;
12814;SDS011;6472;52.328;13.070;2023-08-01T09:37:40;0.98;;;0.70;;
12814;SDS011;6472;52.328;13.070;2023-08-01T09:40:10;0.70;;;0.70;;
12814;SDS011;6472;52.328;13.070;2023-08-01T09:42:39;0.52;;;0.52;;
12814;SDS011;6472;52.328;13.070;2023-08-01T09:45:11;1.35;;;0.55;;
12814;SDS011;6472;52.328;13.070;2023-08-01T09:47:41;0.50;;;0.50;;
12814;SDS011;6472;52.328;13.070;2023-08-01T09:50:19;0.60;;;0.60;;
12814;SDS011;6472;52.328;13.070;2023-08-01T09:52:49;1.15;;;0.77;;
12814;SDS011;6472;52.328;13.070;2023-08-01T09:55:19;0.50;;;0.50;;
12814;SDS011;6472;52.328;13.070;2023-08-01T09:57:53;0.70;;;0.60;;
12814;SDS011;6472;52.328;13.070;2023-08-01T10:00:25;1.20;;;0.50;;
12814;SDS011;6472;52.328;13.070;2023-08-01T10:02:54;0.70;;;0.52;;
12814;SDS011;6472;52.328;13.070;2023-08-01T10:05:26;0.40;;;0.40;;
12814;SDS011;6472;52.328;13.070;2023-08-01T10:07:59;0.70;;;0.70;;
12814;SDS011;6472;52.328;13.070;2023-08-01T10:10:29;1.25;;;0.82;;
12814;SDS011;6472;52.328;13.070;2023-08-01T10:12:58;1.48;;;0.40;;
12814;SDS011;6472;52.328;13.070;2023-08-01T10:15:28;0.47;;;0.47;;
12814;SDS011;6472;52.328;13.070;2023-08-01T10:17:56;1.17;;;0.30;;
12814;SDS011;6472;52.328;13.070;2023-08-01T10:20:25;0.30;;;0.30;;
12814;SDS011;6472;52.328;13.070;2023-08-01T10:22:53;0.70;;;0.40;;
12814;SDS011;6472;52.328;13.070;2023-08-01T10:25:23;0.50;;;0.50;;
12814;SDS011;6472;52.328;13.070;2023-08-01T10:27:59;0.30;;;0.30;;
12814;SDS011;6472;52.328;13.070;2023-08-01T10:30:28;0.68;;;0.45;;
12814;SDS011;6472;52.328;13.070;2023-08-01T10:32:57;0.57;;;0.40;;
12814;SDS011;6472;52.328;13.070;2023-08-01T10:35:32;1.92;;;0.65;;
12814;SDS011;6472;52.328;13.070;2023-08-01T10:38:04;0.30;;;0.30;;
12814;SDS011;6472;52.328;13.070;2023-08-01T10:40:35;0.40;;;0.40;;
12814;SDS011;6472;52.328;13.070;2023-08-01T10:43:04;1.95;;;0.70;;
12814;SDS011;6472;52.328;13.070;2023-08-01T10:45:33;0.32;;;0.32;;
12814;SDS011;6472;52.328;13.070;2023-08-01T10:48:07;0.88;;;0.43;;
12814;SDS011;6472;52.328;13.070;2023-08-01T10:50:36;0.77;;;0.47;;
12814;SDS011;6472;52.328;13.070;2023-08-01T10:53:05;0.60;;;0.60;;
12814;SDS011;6472;52.328;13.070;2023-08-01T10:55:39;1.98;;;0.73;;
12814;SDS011;6472;52.328;13.070;2023-08-01T10:58:08;0.57;;;0.57;;
12814;SDS011;6472;52.328;13.070;2023-08-01T11:00:37;0.57;;;0.57;;
12814;SDS011;6472;52.328;13.070;2023-08-01T11:03:06;0.50;;;0.50;;
12814;SDS011;6472;52.328;13.070;2023-08-01T11:05:34;0.60;;;0.60;;
12814;SDS011;6472;52.328;13.070;2023-08-01T11:08:02;0.80;;;0.80;;
12814;SDS011;6472;52.328;13.070;2023-08-01T11:10:32;1.08;;;0.98;;
12814;SDS011;6472;52.328;13.070;2023-08-01T11:13:02;1.40;;;0.98;;
12814;SDS011;6472;52.328;13.070;2023-08-01T11:15:29;1.15;;;0.95;;
12814;SDS011;6472;52.328;13.070;2023-08-01T11:17:57;1.30;;;0.88;;
12814;SDS011;6472;52.328;13.070;2023-08-01T11:20:26;1.58;;;1.48;;
12814;SDS011;6472;52.328;13.070;2023-08-01T11:22:55;3.33;;;1.15;;
12814;SDS011;6472;52.328;13.070;2023-08-01T11:25:32;1.02;;;1.00;;
12814;SDS011;6472;52.328;13.070;2023-08-01T11:28:04;1.70;;;1.48;;
12814;SDS011;6472;52.328;13.070;2023-08-01T11:30:33;1.50;;;1.40;;
12814;SDS011;6472;52.328;13.070;2023-08-01T11:33:02;3.25;;;1.70;;
12814;SDS011;6472;52.328;13.070;2023-08-01T11:35:40;2.50;;;1.70;;
12814;SDS011;6472;52.328;13.070;2023-08-01T11:38:09;4.68;;;2.35;;
12814;SDS011;6472;52.328;13.070;2023-08-01T11:40:37;3.58;;;1.90;;
12814;SDS011;6472;52.328;13.070;2023-08-01T11:43:07;2.10;;;1.67;;
12814;SDS011;6472;52.328;13.070;2023-08-01T11:45:35;3.03;;;1.83;;
12814;SDS011;6472;52.328;13.070;2023-08-01T11:48:03;2.55;;;2.10;;
12814;SDS011;6472;52.328;13.070;2023-08-01T11:50:32;1.85;;;1.75;;
12814;SDS011;6472;52.328;13.070;2023-08-01T11:53:00;2.67;;;1.90;;
12814;SDS011;6472;52.328;13.070;2023-08-01T11:55:28;3.45;;;1.95;;
12814;SDS011;6472;52.328;13.070;2023-08-01T11:57:56;2.67;;;2.08;;
12814;SDS011;6472;52.328;13.070;2023-08-01T12:00:26;3.20;;;2.10;;
12814;SDS011;6472;52.328;13.070;2023-08-01T12:03:04;2.20;;;2.00;;
12814;SDS011;6472;52.328;13.070;2023-08-01T12:05:33;5.03;;;2.45;;
12814;SDS011;6472;52.328;13.070;2023-08-01T12:08:08;4.38;;;2.20;;
12814;SDS011;6472;52.328;13.070;2023-08-01T12:10:38;2.35;;;2.15;;
12814;SDS011;6472;52.328;13.070;2023-08-01T12:13:18;3.03;;;2.20;;
12814;SDS011;6472;52.328;13.070;2023-08-01T12:15:48;3.80;;;2.40;;
12814;SDS011;6472;52.328;13.070;2023-08-01T12:18:20;3.65;;;2.60;;
12814;SDS011;6472;52.328;13.070;2023-08-01T12:21:09;3.35;;;2.78;;
12814;SDS011;6472;52.328;13.070;2023-08-01T12:23:36;3.60;;;2.83;;
12814;SDS011;6472;52.328;13.070;2023-08-01T12:26:04;4.25;;;2.45;;
12814;SDS011;6472;52.328;13.070;2023-08-01T12:28:33;3.42;;;2.20;;
12814;SDS011;6472;52.328;13.070;2023-08-01T12:31:02;4.10;;;2.22;;
12814;SDS011;6472;52.328;13.070;2023-08-01T12:33:31;2.60;;;2.40;;
12814;SDS011;6472;52.328;13.070;2023-08-01T12:36:00;2.90;;;2.30;;
12814;SDS011;6472;52.328;13.070;2023-08-01T12:38:28;2.47;;;2.28;;
12814;SDS011;6472;52.328;13.070;2023-08-01T12:40:56;4.75;;;2.83;;
12814;SDS011;6472;52.328;13.070;2023-08-01T12:43:24;5.00;;;2.75;;
12814;SDS011;6472;52.328;13.070;2023-08-01T12:45:52;3.40;;;2.10;;
12814;SDS011;6472;52.328;13.070;2023-08-01T12:48:23;4.47;;;2.33;;
12814;SDS011;6472;52.328;13.070;2023-08-01T12:50:51;3.75;;;2.60;;
12814;SDS011;6472;52.328;13.070;2023-08-01T12:53:19;2.75;;;2.45;;
12814;SDS011;6472;52.328;13.070;2023-08-01T12:55:48;4.88;;;2.58;;
12814;SDS011;6472;52.328;13.070;2023-08-01T12:58:17;3.85;;;2.70;;
12814;SDS011;6472;52.328;13.070;2023-08-01T13:00:46;2.80;;;2.30;;
12814;SDS011;6472;52.328;13.070;2023-08-01T13:03:14;3.28;;;2.10;;
12814;SDS011;6472;52.328;13.070;2023-08-01T13:05:43;3.17;;;2.25;;
12814;SDS011;6472;52.328;13.070;2023-08-01T13:08:12;2.80;;;2.42;;
12814;SDS011;6472;52.328;13.070;2023-08-01T13:10:41;2.40;;;2.05;;
12814;SDS011;6472;52.328;13.070;2023-08-01T13:13:11;2.67;;;2.47;;
12814;SDS011;6472;52.328;13.070;2023-08-01T13:15:39;2.83;;;2.30;;
12814;SDS011;6472;52.328;13.070;2023-08-01T13:18:07;4.80;;;2.42;;
12814;SDS011;6472;52.328;13.070;2023-08-01T13:20:36;3.10;;;2.22;;
12814;SDS011;6472;52.328;13.070;2023-08-01T13:23:05;2.58;;;2.15;;
12814;SDS011;6472;52.328;13.070;2023-08-01T13:25:34;4.13;;;2.42;;
12814;SDS011;6472;52.328;13.070;2023-08-01T13:28:02;2.47;;;2.20;;
12814;SDS011;6472;52.328;13.070;2023-08-01T13:30:30;4.32;;;2.33;;
12814;SDS011;6472;52.328;13.070;2023-08-01T13:32:58;6.00;;;2.05;;
12814;SDS011;6472;52.328;13.070;2023-08-01T13:35:27;3.17;;;2.17;;
12814;SDS011;6472;52.328;13.070;2023-08-01T13:37:55;2.58;;;2.38;;
12814;SDS011;6472;52.328;13.070;2023-08-01T13:40:25;2.80;;;2.30;;
12814;SDS011;6472;52.328;13.070;2023-08-01T13:42:53;3.55;;;2.10;;
12814;SDS011;6472;52.328;13.070;2023-08-01T13:45:21;2.83;;;2.20;;
12814;SDS011;6472;52.328;13.070;2023-08-01T13:47:49;3.53;;;2.38;;
12814;SDS011;6472;52.328;13.070;2023-08-01T13:50:17;2.22;;;2.10;;
12814;SDS011;6472;52.328;13.070;2023-08-01T13:52:45;2.15;;;1.92;;
12814;SDS011;6472;52.328;13.070;2023-08-01T13:55:13;3.47;;;1.95;;
12814;SDS011;6472;52.328;13.070;2023-08-01T13:57:45;3.15;;;1.83;;
12814;SDS011;6472;52.328;13.070;2023-08-01T14:00:13;2.40;;;1.90;;
12814;SDS011;6472;52.328;13.070;2023-08-01T14:02:41;2.10;;;1.90;;
12814;SDS011;6472;52.328;13.070;2023-08-01T14:05:09;3.70;;;2.13;;
12814;SDS011;6472;52.328;13.070;2023-08-01T14:07:37;2.95;;;1.80;;
12814;SDS011;6472;52.328;13.070;2023-08-01T14:10:09;2.13;;;1.92;;
12814;SDS011;6472;52.328;13.070;2023-08-01T14:12:37;1.88;;;1.73;;
12814;SDS011;6472;52.328;13.070;2023-08-01T14:15:07;2.92;;;1.95;;
12814;SDS011;6472;52.328;13.070;2023-08-01T14:17:37;3.53;;;2.00;;
12814;SDS011;6472;52.328;13.070;2023-08-01T14:20:06;3.53;;;2.00;;
12814;SDS011;6472;52.328;13.070;2023-08-01T14:22:35;3.25;;;2.05;;
12814;SDS011;6472;52.328;13.070;2023-08-01T14:25:04;2.35;;;2.15;;
12814;SDS011;6472;52.328;13.070;2023-08-01T14:27:33;2.53;;;2.22;;
12814;SDS011;6472;52.328;13.070;2023-08-01T14:30:01;2.92;;;2.10;;
12814;SDS011;6472;52.328;13.070;2023-08-01T14:32:36;2.67;;;1.77;;
12814;SDS011;6472;52.328;13.070;2023-08-01T14:35:06;2.22;;;2.03;;
12814;SDS011;6472;52.328;13.070;2023-08-01T14:37:35;2.28;;;2.08;;
12814;SDS011;6472;52.328;13.070;2023-08-01T14:40:04;2.58;;;2.00;;
12814;SDS011;6472;52.328;13.070;2023-08-01T14:42:33;2.63;;;2.08;;
12814;SDS011;6472;52.328;13.070;2023-08-01T14:45:01;2.03;;;1.80;;
12814;SDS011;6472;52.328;13.070;2023-08-01T14:47:29;2.03;;;1.88;;
12814;SDS011;6472;52.328;13.070;2023-08-01T14:49:59;3.63;;;1.60;;
12814;SDS011;6472;52.328;13.070;2023-08-01T14:52:27;1.92;;;1.77;;
12814;SDS011;6472;52.328;13.070;2023-08-01T14:54:56;2.25;;;1.52;;
12814;SDS011;6472;52.328;13.070;2023-08-01T14:57:24;2.53;;;1.58;;